N420FJ KSMO-KLAS
Flight info
| Callsign | N420FJ |
|---|---|
| Flight time | N/A |
| Altitude | 21000 |
| Route | CTRUS4 MISEN RNDRZ4 |
| Aircraft | HDJT/L-SABDGRWY/H |
Departure
| Time | 2026-05-07 19:56 |
|---|---|
| Airport | Santa Monica Municipal Airport (KSMO) |
Arrival
| Time | N/A |
|---|---|
| Airport | Harry Reid International Airport (KLAS) |
| Time | Latitude | Longitude | Altitude | Speed | Heading |
|---|---|---|---|---|---|
| 2026-05-07 19:35 | 34.01634 | -118.45259 | 126 ft | 0 kts | 314° |
| 2026-05-07 19:51 | 34.01634 | -118.45260 | 126 ft | 1 kts | 314° |
| 2026-05-07 19:51 | 34.01637 | -118.45263 | 126 ft | 3 kts | 314° |
| 2026-05-07 19:51 | 34.01641 | -118.45271 | 126 ft | 0 kts | 282° |
| 2026-05-07 19:52 | 34.01635 | -118.45290 | 126 ft | 6 kts | 241° |
| 2026-05-07 19:52 | 34.01612 | -118.45325 | 124 ft | 5 kts | 225° |
| 2026-05-07 19:52 | 34.01583 | -118.45339 | 126 ft | 5 kts | 156° |
| 2026-05-07 19:52 | 34.01562 | -118.45310 | 127 ft | 5 kts | 127° |
| 2026-05-07 19:53 | 34.01555 | -118.45278 | 126 ft | 4 kts | 62° |
| 2026-05-07 19:53 | 34.01579 | -118.45249 | 125 ft | 7 kts | 41° |
| 2026-05-07 19:53 | 34.01627 | -118.45193 | 126 ft | 12 kts | 44° |
| 2026-05-07 19:53 | 34.01700 | -118.45104 | 124 ft | 16 kts | 44° |
| 2026-05-07 19:54 | 34.01778 | -118.45011 | 125 ft | 15 kts | 45° |
| 2026-05-07 19:54 | 34.01846 | -118.44931 | 124 ft | 12 kts | 44° |
| 2026-05-07 19:54 | 34.01902 | -118.44865 | 124 ft | 10 kts | 44° |
| 2026-05-07 19:54 | 34.01942 | -118.44817 | 126 ft | 7 kts | 45° |
| 2026-05-07 19:55 | 34.01962 | -118.44783 | 125 ft | 3 kts | 91° |
| 2026-05-07 19:55 | 34.01959 | -118.44771 | 125 ft | 0 kts | 128° |
| 2026-05-07 19:55 | 34.01922 | -118.44749 | 126 ft | 13 kts | 185° |
| 2026-05-07 19:55 | 34.01882 | -118.44776 | 126 ft | 3 kts | 223° |
| 2026-05-07 19:56 | 34.01711 | -118.44981 | 124 ft | 72 kts | 224° |
| 2026-05-07 19:56 | 34.01200 | -118.45578 | 227 ft | 119 kts | 224° |
| 2026-05-07 19:56 | 34.00612 | -118.46246 | 915 ft | 121 kts | 223° |
| 2026-05-07 19:56 | 33.99927 | -118.46937 | 1402 ft | 136 kts | 227° |
| 2026-05-07 19:57 | 33.99627 | -118.48063 | 1981 ft | 153 kts | 271° |
| 2026-05-07 19:57 | 33.99719 | -118.49372 | 2522 ft | 158 kts | 275° |
| 2026-05-07 19:57 | 33.99801 | -118.50742 | 3000 ft | 174 kts | 272° |
| 2026-05-07 19:57 | 33.99857 | -118.52287 | 3497 ft | 194 kts | 275° |
| 2026-05-07 19:58 | 33.99959 | -118.53993 | 3995 ft | 213 kts | 274° |
| 2026-05-07 19:58 | 34.00023 | -118.55846 | 4505 ft | 230 kts | 271° |
| 2026-05-07 19:58 | 34.00063 | -118.57816 | 5167 ft | 236 kts | 271° |
| 2026-05-07 19:58 | 34.00159 | -118.59809 | 5838 ft | 242 kts | 275° |
| 2026-05-07 19:59 | 34.00376 | -118.61832 | 6562 ft | 245 kts | 284° |
| 2026-05-07 19:59 | 34.01060 | -118.63718 | 7217 ft | 248 kts | 301° |
| 2026-05-07 19:59 | 34.02092 | -118.65280 | 7837 ft | 252 kts | 317° |
| 2026-05-07 19:59 | 34.02605 | -118.65807 | 8089 ft | 253 kts | 323° |
| 2026-05-07 20:00 | 34.04137 | -118.66855 | 8764 ft | 255 kts | 340° |
| 2026-05-07 20:00 | 34.05864 | -118.67334 | 9475 ft | 256 kts | 356° |
| 2026-05-07 20:00 | 34.07639 | -118.67205 | 10163 ft | 256 kts | 13° |
| 2026-05-07 20:00 | 34.09175 | -118.66584 | 10719 ft | 256 kts | 26° |
| 2026-05-07 20:01 | 34.10665 | -118.65383 | 11326 ft | 260 kts | 42° |
| 2026-05-07 20:01 | 34.11832 | -118.63754 | 11930 ft | 262 kts | 54° |
| 2026-05-07 20:01 | 34.12885 | -118.61947 | 12523 ft | 264 kts | 54° |
| 2026-05-07 20:01 | 34.13980 | -118.60161 | 13116 ft | 266 kts | 53° |
| 2026-05-07 20:02 | 34.15079 | -118.58351 | 13682 ft | 268 kts | 54° |
| 2026-05-07 20:02 | 34.16169 | -118.56511 | 14197 ft | 270 kts | 54° |
| 2026-05-07 20:02 | 34.17260 | -118.54662 | 14687 ft | 271 kts | 54° |
| 2026-05-07 20:02 | 34.18371 | -118.52815 | 15170 ft | 273 kts | 53° |
| 2026-05-07 20:03 | 34.19487 | -118.50955 | 15635 ft | 274 kts | 54° |
| 2026-05-07 20:03 | 34.20602 | -118.49082 | 16103 ft | 275 kts | 54° |
| 2026-05-07 20:03 | 34.21722 | -118.47198 | 16552 ft | 277 kts | 54° |
| 2026-05-07 20:03 | 34.22852 | -118.45309 | 17000 ft | 278 kts | 53° |
| 2026-05-07 20:04 | 34.24207 | -118.43641 | 17465 ft | 280 kts | 39° |
| 2026-05-07 20:04 | 34.25850 | -118.42367 | 17896 ft | 282 kts | 27° |
| 2026-05-07 20:04 | 34.27690 | -118.41505 | 18308 ft | 285 kts | 21° |
| 2026-05-07 20:04 | 34.29554 | -118.40685 | 18668 ft | 286 kts | 22° |
| 2026-05-07 20:05 | 34.31424 | -118.39832 | 19001 ft | 288 kts | 22° |
| 2026-05-07 20:05 | 34.33306 | -118.38996 | 19364 ft | 289 kts | 21° |